createdAt,value
2018-02-15T00:00:41.692Z,24.70
2018-02-15T00:03:09.204Z,23.20
2018-02-15T00:05:36.753Z,26.77
2018-02-15T00:08:04.263Z,22.85
2018-02-15T00:10:32.566Z,24.77
2018-02-15T00:13:00.869Z,25.23
2018-02-15T00:15:28.391Z,23.95
2018-02-15T00:17:55.944Z,22.80
2018-02-15T00:20:23.471Z,25.55
2018-02-15T00:22:51.020Z,20.48
2018-02-15T00:25:18.518Z,20.65
2018-02-15T00:27:46.063Z,21.27
2018-02-15T00:30:13.591Z,21.70
2018-02-15T00:32:41.122Z,17.87
2018-02-15T00:35:08.635Z,22.52
2018-02-15T00:37:38.180Z,19.17
2018-02-15T00:43:17.716Z,20.73
2018-02-15T00:45:49.214Z,19.12
2018-02-15T00:48:33.193Z,19.67
2018-02-15T00:51:05.198Z,21.25
2018-02-15T00:53:38.506Z,19.50
2018-02-15T00:56:09.780Z,17.87
2018-02-15T00:58:39.824Z,16.90
2018-02-15T01:01:08.118Z,17.92
2018-02-15T01:03:35.678Z,16.50
2018-02-15T01:06:03.194Z,16.17
2018-02-15T01:08:30.705Z,21.23
2018-02-15T01:10:58.258Z,15.25
2018-02-15T01:13:26.721Z,16.58
2018-02-15T01:15:54.238Z,18.98
2018-02-15T01:18:25.981Z,16.77
2018-02-15T01:20:53.523Z,17.37
2018-02-15T01:23:21.094Z,16.27
2018-02-15T01:25:51.652Z,17.48
2018-02-15T01:28:19.209Z,15.00
2018-02-15T01:30:48.561Z,19.02
2018-02-15T01:33:17.812Z,14.32
2018-02-15T01:35:46.276Z,16.98
2018-02-15T01:38:13.818Z,17.05
2018-02-15T01:40:41.334Z,16.67
2018-02-15T01:43:09.610Z,15.48
2018-02-15T01:45:38.739Z,18.58
2018-02-15T01:48:07.936Z,13.32
2018-02-15T01:50:36.382Z,17.17
2018-02-15T01:53:03.912Z,13.62
2018-02-15T01:55:34.141Z,14.98
2018-02-15T01:58:01.668Z,13.65
2018-02-15T02:00:30.849Z,15.88
2018-02-15T02:03:00.496Z,21.50
2018-02-15T02:05:28.033Z,15.02
2018-02-15T02:07:56.458Z,16.35
2018-02-15T02:10:26.567Z,19.42
2018-02-15T02:12:54.107Z,15.40
2018-02-15T02:15:21.620Z,13.00
2018-02-15T02:17:49.168Z,15.80
2018-02-15T02:20:17.425Z,13.80
2018-02-15T02:22:44.914Z,19.80
2018-02-15T02:25:12.459Z,13.62
2018-02-15T02:27:40.762Z,16.05
2018-02-15T02:30:08.321Z,15.98
2018-02-15T02:32:35.835Z,14.82
2018-02-15T02:35:03.360Z,16.85
2018-02-15T02:37:30.867Z,14.32
2018-02-15T02:39:59.179Z,16.83
2018-02-15T02:42:26.691Z,16.30
2018-02-15T02:44:54.981Z,14.13
2018-02-15T02:47:23.268Z,14.55
2018-02-15T02:49:50.778Z,15.52
2018-02-15T02:52:18.306Z,14.25
2018-02-15T02:54:45.820Z,15.30
2018-02-15T02:57:14.203Z,18.83
2018-02-15T02:59:42.512Z,16.05
2018-02-15T03:02:10.783Z,13.73
2018-02-15T03:04:38.303Z,15.57
2018-02-15T03:07:05.822Z,17.95
2018-02-15T03:09:33.341Z,19.10
2018-02-15T03:12:01.631Z,13.75
2018-02-15T03:14:29.148Z,15.85
2018-02-15T03:16:56.670Z,19.42
2018-02-15T03:19:24.199Z,14.02
2018-02-15T03:21:51.736Z,13.50
2018-02-15T03:24:20.003Z,14.25
2018-02-15T03:26:47.509Z,16.75
2018-02-15T03:29:15.025Z,11.85
2018-02-15T03:31:43.306Z,15.77
2018-02-15T03:34:11.635Z,16.90
2018-02-15T03:36:39.119Z,16.27
2018-02-15T03:39:06.619Z,15.40
2018-02-15T03:41:34.242Z,17.00
2018-02-15T03:44:01.734Z,18.23
2018-02-15T03:46:29.246Z,14.60
2018-02-15T03:48:56.803Z,14.50
2018-02-15T03:51:24.313Z,14.20
2018-02-15T03:53:51.849Z,13.32
2018-02-15T03:56:20.127Z,17.45
2018-02-15T03:58:48.421Z,15.73
2018-02-15T04:01:16.006Z,15.15
2018-02-15T04:03:43.512Z,15.40
2018-02-15T04:06:11.021Z,15.50
2018-02-15T04:08:38.550Z,12.90
2018-02-15T04:11:06.819Z,13.68
2018-02-15T04:13:35.148Z,12.32
2018-02-15T04:16:02.656Z,13.15
2018-02-15T04:18:30.917Z,16.27
2018-02-15T04:20:58.455Z,13.00
2018-02-15T04:23:25.988Z,12.98
2018-02-15T04:25:53.500Z,14.40
2018-02-15T04:28:21.795Z,12.23
2018-02-15T04:30:49.325Z,13.75
2018-02-15T04:33:16.867Z,12.88
2018-02-15T04:35:44.355Z,16.98
2018-02-15T04:38:12.649Z,12.37
2018-02-15T04:40:40.230Z,13.75
2018-02-15T04:43:07.884Z,12.45
2018-02-15T04:45:35.494Z,12.95
2018-02-15T04:48:03.042Z,12.57
2018-02-15T04:50:30.558Z,17.12
2018-02-15T04:52:58.070Z,14.52
2018-02-15T04:55:25.613Z,12.70
2018-02-15T04:57:53.100Z,14.98
2018-02-15T05:00:20.646Z,12.75
2018-02-15T05:02:48.166Z,15.73
2018-02-15T05:05:15.673Z,13.90
2018-02-15T05:07:43.209Z,13.32
2018-02-15T05:10:10.746Z,12.00
2018-02-15T05:12:38.269Z,12.93
2018-02-15T05:15:06.920Z,12.35
2018-02-15T05:17:34.422Z,13.82
2018-02-15T05:20:01.947Z,11.80
2018-02-15T05:22:29.445Z,15.50
2018-02-15T05:24:56.974Z,15.10
2018-02-15T05:27:24.461Z,13.95
2018-02-15T05:29:51.969Z,12.88
2018-02-15T05:32:19.509Z,15.68
2018-02-15T05:34:47.030Z,13.73
2018-02-15T05:37:14.526Z,14.05
2018-02-15T05:39:42.078Z,11.18
2018-02-15T05:42:09.585Z,14.18
2018-02-15T05:44:37.879Z,13.95
2018-02-15T05:47:05.369Z,16.45
2018-02-15T05:49:32.890Z,13.00
2018-02-15T05:52:00.387Z,13.05
2018-02-15T05:54:27.923Z,12.77
2018-02-15T05:56:55.415Z,13.77
2018-02-15T05:59:22.919Z,16.10
2018-02-15T06:01:51.223Z,12.02
2018-02-15T06:04:18.758Z,16.90
2018-02-15T06:06:46.288Z,14.60
2018-02-15T06:09:13.872Z,15.75
2018-02-15T06:11:41.462Z,13.57
2018-02-15T06:14:08.988Z,14.80
2018-02-15T06:16:36.568Z,12.63
2018-02-15T06:19:04.127Z,16.55
2018-02-15T06:21:31.721Z,20.12
2018-02-15T06:23:59.285Z,14.87
2018-02-15T06:26:26.845Z,13.35
2018-02-15T06:28:54.419Z,12.15
2018-02-15T06:31:22.039Z,12.75
2018-02-15T06:33:49.578Z,15.88
2018-02-15T06:36:17.278Z,12.93
2018-02-15T06:38:44.852Z,10.55
2018-02-15T06:41:12.480Z,17.27
2018-02-15T06:43:40.070Z,18.77
2018-02-15T06:46:07.613Z,14.48
2018-02-15T06:48:35.226Z,19.10
2018-02-15T06:51:03.548Z,13.50
2018-02-15T06:53:31.062Z,15.52
2018-02-15T06:55:59.380Z,18.02
2018-02-15T06:58:26.957Z,17.90
2018-02-15T07:00:54.490Z,14.50
2018-02-15T07:03:22.070Z,15.82
2018-02-15T07:05:49.638Z,15.15
2018-02-15T07:08:17.219Z,10.95
2018-02-15T07:10:44.749Z,15.30
2018-02-15T07:13:12.307Z,23.08
2018-02-15T07:15:39.859Z,25.67
2018-02-15T07:18:07.396Z,18.20
2018-02-15T07:20:34.991Z,21.12
2018-02-15T07:23:02.494Z,22.35
2018-02-15T07:25:30.054Z,20.23
2018-02-15T07:27:57.728Z,24.83
2018-02-15T07:30:25.262Z,20.70
2018-02-15T07:32:53.559Z,22.40
2018-02-15T07:35:21.130Z,17.27
2018-02-15T07:37:48.688Z,21.10
2018-02-15T07:40:16.248Z,22.65
2018-02-15T07:42:43.787Z,24.45
2018-02-15T07:45:12.083Z,24.40
2018-02-15T07:47:39.677Z,20.40
2018-02-15T07:50:07.245Z,24.37
2018-02-15T07:52:34.806Z,24.75
2018-02-15T07:55:02.387Z,27.15
2018-02-15T07:57:30.726Z,24.87
2018-02-15T07:59:58.288Z,29.80
2018-02-15T08:02:25.816Z,24.65
2018-02-15T08:04:53.350Z,25.88
2018-02-15T08:07:21.701Z,24.85
2018-02-15T08:09:49.216Z,21.73
2018-02-15T08:12:16.767Z,23.67
2018-02-15T08:14:44.307Z,19.37
2018-02-15T08:17:12.631Z,21.55
2018-02-15T08:19:40.163Z,28.35
2018-02-15T08:22:07.740Z,23.15
2018-02-15T08:24:35.309Z,20.23
2018-02-15T08:27:02.835Z,26.02
2018-02-15T08:29:30.388Z,25.40
2018-02-15T08:31:57.988Z,21.12
2018-02-15T08:34:25.542Z,19.77
2018-02-15T08:36:53.136Z,24.12
2018-02-15T08:39:20.682Z,20.95
2018-02-15T08:41:48.312Z,23.40
2018-02-15T08:44:15.897Z,23.35
2018-02-15T08:46:43.466Z,20.98
2018-02-15T08:49:10.984Z,19.67
2018-02-15T08:51:40.836Z,21.90
2018-02-15T08:54:08.419Z,23.20
2018-02-15T08:56:36.755Z,24.98
2018-02-15T08:59:04.348Z,23.52
2018-02-15T09:01:32.687Z,22.77
2018-02-15T09:04:00.239Z,24.90
2018-02-15T09:06:35.230Z,19.92
2018-02-15T09:09:03.569Z,24.10
2018-02-15T09:11:31.128Z,20.75
2018-02-15T09:13:58.982Z,28.52
2018-02-15T09:16:26.539Z,22.20
2018-02-15T09:18:54.284Z,23.25
2018-02-15T09:21:22.744Z,25.62
2018-02-15T09:23:51.119Z,21.30
2018-02-15T09:26:18.656Z,24.77
2018-02-15T09:28:46.217Z,23.98
2018-02-15T09:31:13.754Z,32.55
2018-02-15T09:33:41.343Z,30.42
2018-02-15T09:36:09.005Z,23.38
2018-02-15T09:38:36.606Z,24.80
2018-02-15T09:41:04.178Z,26.60
2018-02-15T09:43:31.747Z,23.27
2018-02-15T09:45:59.274Z,24.92
2018-02-15T09:48:26.842Z,25.33
2018-02-15T09:50:54.409Z,26.60
2018-02-15T09:53:21.939Z,27.30
2018-02-15T09:55:50.232Z,29.10
2018-02-15T09:58:17.840Z,23.70
2018-02-15T10:00:45.444Z,33.08
2018-02-15T10:03:13.024Z,27.52
2018-02-15T10:05:40.581Z,24.95
2018-02-15T10:08:08.115Z,26.52
2018-02-15T10:10:35.652Z,31.83
2018-02-15T10:13:03.245Z,24.83
2018-02-15T10:15:42.835Z,27.95
2018-02-15T10:18:10.560Z,35.35
2018-02-15T10:20:38.140Z,30.77
2018-02-15T10:23:05.709Z,32.40
2018-02-15T10:25:33.245Z,28.80
2018-02-15T10:28:00.804Z,28.58
2018-02-15T10:30:28.352Z,31.95
2018-02-15T10:32:55.916Z,31.73
2018-02-15T10:35:23.495Z,31.42
2018-02-15T10:37:51.079Z,30.85
2018-02-15T10:40:18.660Z,30.30
2018-02-15T10:42:47.005Z,29.58
2018-02-15T10:45:14.599Z,34.08
2018-02-15T10:47:42.151Z,30.15
2018-02-15T10:50:09.679Z,34.97
2018-02-15T10:52:37.254Z,28.85
2018-02-15T10:55:04.794Z,32.60
2018-02-15T10:57:46.561Z,33.25
2018-02-15T11:00:21.367Z,32.63
2018-02-15T11:03:13.065Z,31.98
2018-02-15T11:05:40.881Z,39.47
2018-02-15T11:08:08.455Z,33.08
2018-02-15T11:10:35.991Z,38.30
2018-02-15T11:13:03.544Z,39.28
2018-02-15T11:18:15.175Z,36.85
2018-02-15T11:20:42.734Z,31.48
2018-02-15T11:23:10.260Z,31.27
2018-02-15T11:25:38.616Z,33.60
2018-02-15T11:28:06.960Z,30.55
2018-02-15T11:30:35.515Z,35.17
2018-02-15T11:33:05.880Z,61.10
2018-02-15T11:35:33.562Z,33.83
2018-02-15T11:38:09.150Z,34.42
2018-02-15T11:40:36.721Z,30.35
2018-02-15T11:43:04.923Z,30.12
2018-02-15T11:45:32.458Z,32.47
2018-02-15T11:48:00.085Z,33.38
2018-02-15T11:50:28.687Z,27.83
2018-02-15T11:52:56.288Z,31.52
2018-02-15T11:55:23.856Z,35.03
2018-02-15T11:57:51.407Z,33.45
2018-02-15T12:00:18.995Z,35.65
2018-02-15T12:02:46.540Z,36.08
2018-02-15T12:05:14.125Z,30.58
2018-02-15T12:07:41.688Z,34.08
2018-02-15T12:10:10.014Z,33.40
2018-02-15T12:12:37.558Z,32.88
2018-02-15T12:15:05.076Z,37.50
2018-02-15T12:17:33.441Z,37.13
2018-02-15T12:20:00.990Z,34.20
2018-02-15T12:22:28.548Z,37.17
2018-02-15T12:24:56.121Z,30.17
2018-02-15T12:27:23.675Z,31.85
2018-02-15T12:29:51.249Z,28.70
2018-02-15T12:32:19.544Z,29.92
2018-02-15T12:34:47.106Z,34.65
2018-02-15T12:37:14.635Z,35.03
2018-02-15T12:39:42.181Z,34.28
2018-02-15T12:42:09.745Z,37.20
2018-02-15T12:44:37.301Z,32.35
2018-02-15T12:47:04.976Z,39.78
2018-02-15T12:49:32.469Z,50.65
2018-02-15T12:52:00.014Z,35.10
2018-02-15T12:54:27.599Z,42.38
2018-02-15T12:56:55.137Z,43.40
2018-02-15T12:59:22.722Z,38.38
2018-02-15T13:01:50.311Z,39.05
2018-02-15T13:04:17.900Z,41.22
2018-02-15T13:06:45.481Z,39.45
2018-02-15T13:09:13.028Z,35.63
2018-02-15T13:11:40.583Z,40.67
2018-02-15T13:14:08.908Z,39.30
2018-02-15T13:16:48.240Z,43.17
2018-02-15T13:19:27.715Z,40.92
2018-02-15T13:21:55.290Z,39.55
2018-02-15T13:24:23.595Z,40.65
2018-02-15T13:26:51.245Z,42.75
2018-02-15T13:29:18.799Z,42.45
2018-02-15T13:31:46.350Z,47.95
2018-02-15T13:34:14.677Z,41.50
2018-02-15T13:36:42.228Z,41.35
2018-02-15T13:39:10.557Z,47.03
2018-02-15T13:41:38.901Z,47.38
2018-02-15T13:44:06.483Z,45.70
2018-02-15T13:46:34.015Z,45.08
2018-02-15T13:49:01.580Z,51.53
2018-02-15T13:51:29.111Z,52.00
2018-02-15T13:53:56.686Z,46.83
2018-02-15T13:56:24.234Z,48.03
2018-02-15T13:58:51.798Z,48.78
2018-02-15T14:01:19.369Z,46.20
2018-02-15T14:03:46.900Z,48.67
2018-02-15T14:06:14.610Z,45.67
2018-02-15T14:08:42.220Z,48.00
2018-02-15T14:11:09.953Z,43.95
2018-02-15T14:13:38.315Z,46.37
2018-02-15T14:16:05.892Z,46.97
2018-02-15T14:18:34.234Z,48.95
2018-02-15T14:21:01.806Z,47.15
2018-02-15T14:23:29.383Z,56.05
2018-02-15T14:25:56.947Z,48.08
2018-02-15T14:28:25.300Z,50.63
2018-02-15T14:30:52.851Z,48.60
2018-02-15T14:33:20.448Z,50.67
2018-02-15T14:35:48.784Z,49.55
2018-02-15T14:38:16.329Z,49.83
2018-02-15T14:40:43.915Z,47.92
2018-02-15T14:43:11.509Z,48.85
2018-02-15T14:45:39.812Z,56.05
2018-02-15T14:48:07.371Z,90.07
2018-02-15T14:50:35.047Z,75.55
2018-02-15T14:53:02.652Z,56.37
2018-02-15T14:55:30.187Z,54.92
2018-02-15T14:57:57.753Z,52.70
2018-02-15T15:00:25.327Z,56.58
2018-02-15T15:02:52.878Z,53.30
2018-02-15T15:05:21.417Z,54.00
2018-02-15T15:07:49.813Z,53.90
2018-02-15T15:10:17.415Z,54.55
2018-02-15T15:12:45.793Z,55.10
2018-02-15T15:15:13.377Z,58.38
2018-02-15T15:17:55.651Z,57.72
2018-02-15T15:20:23.269Z,57.25
2018-02-15T15:22:50.882Z,52.65
2018-02-15T15:25:19.177Z,52.55
2018-02-15T15:27:46.783Z,60.75
2018-02-15T15:30:14.389Z,63.75
2018-02-15T15:32:46.454Z,54.53
2018-02-15T15:35:14.047Z,60.88
2018-02-15T15:37:41.603Z,62.08
2018-02-15T15:40:09.196Z,56.85
2018-02-15T15:42:36.784Z,57.25
2018-02-15T15:45:04.415Z,59.08
2018-02-15T15:47:31.989Z,59.03
2018-02-15T15:50:00.324Z,60.28
2018-02-15T15:52:27.892Z,60.58
2018-02-15T15:54:55.476Z,59.47
2018-02-15T15:57:23.109Z,60.35
2018-02-15T15:59:50.702Z,65.93
2018-02-15T16:02:18.315Z,63.17
2018-02-15T16:04:45.887Z,70.53
2018-02-15T16:07:13.466Z,65.75
2018-02-15T16:09:41.056Z,70.30
2018-02-15T16:12:08.618Z,67.35
2018-02-15T16:14:36.198Z,73.55
2018-02-15T16:17:04.559Z,72.95
2018-02-15T16:19:32.879Z,73.87
2018-02-15T16:22:00.449Z,70.07
2018-02-15T16:24:39.744Z,80.72
2018-02-15T16:27:08.644Z,70.90
2018-02-15T16:29:36.188Z,64.07
2018-02-15T16:32:04.582Z,67.75
2018-02-15T16:34:33.271Z,66.72
2018-02-15T16:37:00.832Z,66.65
2018-02-15T16:39:28.383Z,66.65
2018-02-15T16:41:57.363Z,67.00
2018-02-15T16:44:25.679Z,65.95
2018-02-15T16:46:53.261Z,70.60
2018-02-15T16:49:21.289Z,57.53
2018-02-15T16:51:48.979Z,55.63
2018-02-15T16:54:16.561Z,65.85
2018-02-15T16:56:44.133Z,67.70
2018-02-15T16:59:11.717Z,71.87
2018-02-15T17:01:40.048Z,71.37
2018-02-15T17:04:07.611Z,62.20
2018-02-15T17:06:35.253Z,56.25
2018-02-15T17:09:02.828Z,59.80
2018-02-15T17:11:30.368Z,57.45
2018-02-15T17:13:57.920Z,60.10
2018-02-15T17:16:25.513Z,79.30
2018-02-15T17:18:53.096Z,63.20
2018-02-15T17:21:20.718Z,74.68
2018-02-15T17:23:48.353Z,67.53
2018-02-15T17:26:16.672Z,61.33
2018-02-15T17:28:44.300Z,65.22
2018-02-15T17:31:11.878Z,65.72
2018-02-15T17:33:39.450Z,61.80
2018-02-15T17:36:06.991Z,69.85
2018-02-15T17:38:34.569Z,73.05
2018-02-15T17:41:02.126Z,78.57
2018-02-15T17:43:29.701Z,68.28
2018-02-15T17:45:57.281Z,74.28
2018-02-15T17:48:25.598Z,62.17
2018-02-15T17:50:53.947Z,59.20
2018-02-15T17:53:21.505Z,58.83
2018-02-15T17:55:49.835Z,60.67
2018-02-15T17:58:17.399Z,58.97
2018-02-15T18:00:44.982Z,61.55
2018-02-15T18:03:12.521Z,56.00
2018-02-15T18:05:40.099Z,64.20
2018-02-15T18:08:07.669Z,63.60
2018-02-15T18:10:36.006Z,58.87
2018-02-15T18:13:03.553Z,58.00
2018-02-15T18:15:31.132Z,56.55
2018-02-15T18:17:58.710Z,57.65
2018-02-15T18:20:26.341Z,62.47
2018-02-15T18:22:53.894Z,61.78
2018-02-15T18:25:21.463Z,59.50
2018-02-15T18:27:49.041Z,59.42
2018-02-15T18:30:16.614Z,66.47
2018-02-15T18:32:44.145Z,58.08
2018-02-15T18:35:11.721Z,64.20
2018-02-15T18:37:39.283Z,56.40
2018-02-15T18:40:06.843Z,60.58
2018-02-15T18:42:34.413Z,52.05
2018-02-15T18:45:01.971Z,54.30
2018-02-15T18:47:29.535Z,58.58
2018-02-15T18:49:57.108Z,63.53
2018-02-15T18:52:25.447Z,54.20
2018-02-15T18:54:53.029Z,54.63
2018-02-15T18:57:20.609Z,52.80
2018-02-15T18:59:48.946Z,49.05
2018-02-15T19:02:16.482Z,52.03
2018-02-15T19:04:44.135Z,53.15
2018-02-15T19:07:11.762Z,49.92
2018-02-15T19:09:39.436Z,47.78
2018-02-15T19:12:08.283Z,54.63
2018-02-15T19:14:35.993Z,54.70
2018-02-15T19:17:03.655Z,54.33
2018-02-15T19:19:31.285Z,48.58
2018-02-15T19:21:59.021Z,50.50
2018-02-15T19:24:26.726Z,54.67
2018-02-15T19:26:55.149Z,51.60
2018-02-15T19:29:22.852Z,48.35
2018-02-15T19:31:50.817Z,52.53
2018-02-15T19:34:19.006Z,48.43
2018-02-15T19:36:47.756Z,52.22
2018-02-15T19:39:16.212Z,53.67
2018-02-15T19:41:43.845Z,50.78
2018-02-15T19:44:13.133Z,44.72
2018-02-15T19:46:41.857Z,51.30
2018-02-15T19:49:09.930Z,50.35
2018-02-15T19:51:37.678Z,49.30
2018-02-15T19:54:27.456Z,55.78
2018-02-15T19:56:55.746Z,51.20
2018-02-15T19:59:24.405Z,50.78
2018-02-15T20:01:52.223Z,49.22
2018-02-15T20:04:20.853Z,52.90
2018-02-15T20:06:48.750Z,53.22
2018-02-15T20:09:16.442Z,56.10
2018-02-15T20:11:44.195Z,51.97
2018-02-15T20:14:11.814Z,53.53
2018-02-15T20:16:39.526Z,47.03
2018-02-15T20:19:07.757Z,47.22
2018-02-15T20:21:35.556Z,51.95
2018-02-15T20:24:04.754Z,57.13
2018-02-15T20:26:39.060Z,60.58
2018-02-15T20:29:07.371Z,60.47
2018-02-15T20:31:35.024Z,53.13
2018-02-15T20:34:03.108Z,49.70
2018-02-15T20:36:32.087Z,50.67
2018-02-15T20:39:09.270Z,53.25
2018-02-15T20:41:44.841Z,54.22
2018-02-15T20:44:14.253Z,49.47
2018-02-15T20:46:41.993Z,52.28
2018-02-15T20:49:15.992Z,50.90
2018-02-15T20:51:49.208Z,53.42
2018-02-15T20:54:23.416Z,56.22
2018-02-15T20:56:55.106Z,58.03
2018-02-15T20:59:22.729Z,58.25
2018-02-15T21:01:50.380Z,56.92
2018-02-15T21:04:18.836Z,50.63
2018-02-15T21:06:46.726Z,50.95
2018-02-15T21:09:14.306Z,51.10
2018-02-15T21:11:42.156Z,49.97
2018-02-15T21:14:09.744Z,53.90
2018-02-15T21:16:37.341Z,47.35
2018-02-15T21:19:04.939Z,47.17
2018-02-15T21:21:32.514Z,50.88
2018-02-15T21:24:00.089Z,50.00
2018-02-15T21:26:28.520Z,50.08
2018-02-15T21:28:56.107Z,48.55
2018-02-15T21:31:23.683Z,52.90
2018-02-15T21:33:51.256Z,52.55
2018-02-15T21:36:19.560Z,46.92
2018-02-15T21:38:47.144Z,50.42
2018-02-15T21:41:14.718Z,44.75
2018-02-15T21:43:42.296Z,43.45
2018-02-15T21:46:09.841Z,48.30
2018-02-15T21:48:37.392Z,51.65
2018-02-15T21:51:04.988Z,55.80
2018-02-15T21:53:33.356Z,52.85
2018-02-15T21:56:01.341Z,58.67
2018-02-15T21:58:29.665Z,49.05
2018-02-15T22:00:57.239Z,48.15
2018-02-15T22:03:36.864Z,46.03
2018-02-15T22:06:04.980Z,51.72
2018-02-15T22:08:32.771Z,46.10
2018-02-15T22:11:01.130Z,50.53
2018-02-15T22:13:29.504Z,47.05
2018-02-15T22:15:57.052Z,47.10
2018-02-15T22:18:24.671Z,47.55
2018-02-15T22:20:52.294Z,42.70
2018-02-15T22:23:19.853Z,47.45
2018-02-15T22:25:48.170Z,45.55
2018-02-15T22:28:15.756Z,48.60
2018-02-15T22:30:43.292Z,54.38
2018-02-15T22:33:10.833Z,62.88
2018-02-15T22:35:38.335Z,65.05
2018-02-15T22:38:05.863Z,56.72
2018-02-15T22:40:33.366Z,55.20
2018-02-15T22:43:00.868Z,49.92
2018-02-15T22:45:28.387Z,48.78
2018-02-15T22:47:56.434Z,50.45
2018-02-15T22:50:23.947Z,59.70
2018-02-15T22:52:51.463Z,53.35
2018-02-15T22:55:19.024Z,46.08
2018-02-15T22:57:46.559Z,57.30
2018-02-15T23:00:14.086Z,60.58
2018-02-15T23:02:41.634Z,52.83
2018-02-15T23:05:09.927Z,51.97
2018-02-15T23:07:37.449Z,50.80
2018-02-15T23:10:04.996Z,56.63
2018-02-15T23:12:32.629Z,57.03
2018-02-15T23:15:00.163Z,64.50
2018-02-15T23:17:27.691Z,62.60
2018-02-15T23:19:56.027Z,65.15
2018-02-15T23:22:23.551Z,62.28
2018-02-15T23:24:51.070Z,65.35
2018-02-15T23:27:18.608Z,57.53
2018-02-15T23:29:46.118Z,63.95
2018-02-15T23:32:14.384Z,65.78
2018-02-15T23:34:42.729Z,72.05
2018-02-15T23:37:10.264Z,65.37
2018-02-15T23:39:37.766Z,62.30
2018-02-15T23:42:05.308Z,63.30
2018-02-15T23:44:32.823Z,54.28
2018-02-15T23:47:00.498Z,60.92
2018-02-15T23:49:28.789Z,66.53
2018-02-15T23:51:56.294Z,71.60
2018-02-15T23:54:24.584Z,70.18
2018-02-15T23:56:52.886Z,62.53
2018-02-15T23:59:20.400Z,60.67
